createdAt,value
2022-11-26T00:00:15.109Z,101994.56
2022-11-26T00:00:36.741Z,101980.53
2022-11-26T00:00:58.312Z,101994.63
2022-11-26T00:01:21.599Z,101996.41
2022-11-26T00:01:44.803Z,101993.75
2022-11-26T00:02:16.540Z,102003.50
2022-11-26T00:02:38.329Z,101998.16
2022-11-26T00:03:01.504Z,101996.31
2022-11-26T00:03:24.338Z,101999.94
2022-11-26T00:03:46.604Z,102006.06
2022-11-26T00:04:08.311Z,102004.31
2022-11-26T00:04:29.864Z,101998.06
2022-11-26T00:04:54.472Z,102000.72
2022-11-26T00:05:16.659Z,102002.50
2022-11-26T00:05:39.847Z,102003.44
2022-11-26T00:06:03.048Z,102006.06
2022-11-26T00:06:32.714Z,102000.84
2022-11-26T00:06:54.352Z,102012.38
2022-11-26T00:07:18.480Z,102004.47
2022-11-26T00:07:42.028Z,102007.91
2022-11-26T00:08:05.065Z,102007.03
2022-11-26T00:08:30.760Z,102006.19
2022-11-26T00:08:52.868Z,102012.44
2022-11-26T00:09:22.756Z,102009.81
2022-11-26T00:09:44.581Z,102006.25
2022-11-26T00:10:16.653Z,102009.81
2022-11-26T00:10:39.318Z,102011.72
2022-11-26T00:11:01.913Z,102007.31
2022-11-26T00:11:23.693Z,102008.13
2022-11-26T00:11:46.304Z,102010.84
2022-11-26T00:12:16.409Z,102009.91
2022-11-26T00:12:37.998Z,102016.09
2022-11-26T00:13:00.582Z,102018.75
2022-11-26T00:13:24.393Z,102007.25
2022-11-26T00:13:46.067Z,102000.22
2022-11-26T00:14:13.419Z,102008.09
2022-11-26T00:14:36.772Z,102009.06
2022-11-26T00:15:01.424Z,102008.97
2022-11-26T00:15:25.219Z,102017.78
2022-11-26T00:15:48.857Z,102008.91
2022-11-26T00:16:14.950Z,102020.38
2022-11-26T00:16:36.901Z,102007.13
2022-11-26T00:16:58.622Z,102016.00
2022-11-26T00:17:21.507Z,102014.25
2022-11-26T00:17:43.172Z,102015.13
2022-11-26T00:18:07.140Z,102017.78
2022-11-26T00:18:28.739Z,102013.34
2022-11-26T00:18:50.384Z,102024.03
2022-11-26T00:19:12.050Z,102014.31
2022-11-26T00:19:34.621Z,102018.75
2022-11-26T00:19:57.636Z,102010.78
2022-11-26T00:20:22.704Z,102017.88
2022-11-26T00:20:46.657Z,102018.75
2022-11-26T00:21:16.644Z,101998.59
2022-11-26T00:21:40.488Z,102016.16
2022-11-26T00:22:03.278Z,102005.69
2022-11-26T00:22:30.524Z,102021.44
2022-11-26T00:22:54.567Z,102024.97
2022-11-26T00:23:21.698Z,102020.53
2022-11-26T00:23:46.634Z,102027.63
2022-11-26T00:24:26.623Z,102015.31
2022-11-26T00:24:50.196Z,102029.44
2022-11-26T00:25:18.002Z,102011.09
2022-11-26T00:25:42.511Z,102020.84
2022-11-26T00:26:04.900Z,102006.75
2022-11-26T00:26:27.568Z,102027.88
2022-11-26T00:26:49.311Z,102033.22
2022-11-26T00:27:11.850Z,102024.41
2022-11-26T00:27:33.569Z,102018.28
2022-11-26T00:27:58.750Z,102033.22
2022-11-26T00:28:27.036Z,102033.22
2022-11-26T00:28:51.516Z,102035.78
2022-11-26T00:29:13.089Z,102030.47
2022-11-26T00:29:34.671Z,102037.56
2022-11-26T00:29:57.271Z,102034.03
2022-11-26T00:30:21.657Z,102037.56
2022-11-26T00:30:43.290Z,102034.84
2022-11-26T00:31:08.458Z,102032.16
2022-11-26T00:31:30.150Z,102026.91
2022-11-26T00:31:51.848Z,102037.47
2022-11-26T00:32:16.801Z,102036.63
2022-11-26T00:32:39.334Z,102033.94
2022-11-26T00:33:00.984Z,102029.50
2022-11-26T00:33:24.359Z,102044.53
2022-11-26T00:33:46.103Z,102024.22
2022-11-26T00:34:08.722Z,102039.25
2022-11-26T00:34:30.305Z,102041.09
2022-11-26T00:34:52.596Z,102034.00
2022-11-26T00:35:15.068Z,102029.66
2022-11-26T00:35:37.641Z,102038.53
2022-11-26T00:36:03.785Z,102034.09
2022-11-26T00:36:29.808Z,102028.84
2022-11-26T00:36:51.524Z,102041.19
2022-11-26T00:37:21.729Z,102037.66
2022-11-26T00:37:46.022Z,102038.50
2022-11-26T00:38:15.862Z,102039.34
2022-11-26T00:38:38.452Z,102041.13
2022-11-26T00:39:02.793Z,102042.00
2022-11-26T00:39:24.647Z,102042.06
2022-11-26T00:39:46.960Z,102041.22
2022-11-26T00:40:16.552Z,102029.75
2022-11-26T00:40:38.205Z,102041.22
2022-11-26T00:40:59.896Z,102039.50
2022-11-26T00:41:25.894Z,102038.59
2022-11-26T00:41:50.566Z,102043.03
2022-11-26T00:42:12.743Z,102046.53
2022-11-26T00:42:34.342Z,102049.25
2022-11-26T00:43:01.672Z,102042.09
2022-11-26T00:43:23.790Z,102035.88
2022-11-26T00:43:45.973Z,102050.06
2022-11-26T00:44:18.131Z,102048.25
2022-11-26T00:44:40.143Z,102039.34
2022-11-26T00:45:01.951Z,102048.25
2022-11-26T00:45:27.116Z,102043.84
2022-11-26T00:45:50.448Z,102042.06
2022-11-26T00:56:45.715Z,102062.97
2022-11-26T00:57:10.387Z,102062.97
2022-11-26T00:57:32.040Z,102042.66
2022-11-26T00:57:53.998Z,102059.31
2022-11-26T00:58:24.059Z,102061.91
2022-11-26T00:58:46.456Z,102063.69
2022-11-26T00:59:12.324Z,102059.25
2022-11-26T00:59:33.962Z,102039.13
2022-11-26T00:59:56.584Z,102063.69
2022-11-26T01:00:21.107Z,102054.03
2022-11-26T01:00:42.757Z,102057.53
2022-11-26T01:01:04.477Z,102066.41
2022-11-26T01:01:28.764Z,102062.03
2022-11-26T01:01:50.778Z,102052.28
2022-11-26T01:02:12.434Z,102051.41
2022-11-26T01:02:34.168Z,102061.06
2022-11-26T01:02:57.280Z,102069.88
2022-11-26T01:03:19.301Z,102069.00
2022-11-26T01:03:42.892Z,102074.31
2022-11-26T01:04:04.777Z,102071.63
2022-11-26T01:04:27.351Z,102075.19
2022-11-26T01:04:48.916Z,102071.59
2022-11-26T01:05:10.884Z,102074.31
2022-11-26T01:05:33.551Z,102076.97
2022-11-26T01:05:59.871Z,102076.97
2022-11-26T01:06:24.114Z,102077.84
2022-11-26T01:06:46.284Z,102058.50
2022-11-26T01:07:10.089Z,102097.31
2022-11-26T01:07:32.904Z,102081.34
2022-11-26T01:07:56.833Z,102087.50
2022-11-26T01:08:28.439Z,102079.56
2022-11-26T01:08:51.588Z,102083.09
2022-11-26T01:09:17.486Z,102089.25
2022-11-26T01:09:39.478Z,102077.84
2022-11-26T01:10:01.091Z,102083.03
2022-11-26T01:10:26.231Z,102085.69
2022-11-26T01:10:50.189Z,102083.94
2022-11-26T01:11:14.440Z,102078.66
2022-11-26T01:11:36.074Z,102089.22
2022-11-26T01:11:59.965Z,102092.72
2022-11-26T01:12:21.547Z,102090.06
2022-11-26T01:12:43.243Z,102087.41
2022-11-26T01:13:06.256Z,102096.25
2022-11-26T01:13:29.404Z,102096.25
2022-11-26T01:13:53.466Z,102096.25
2022-11-26T01:14:17.238Z,102098.03
2022-11-26T01:14:39.150Z,102097.16
2022-11-26T01:15:01.941Z,102087.47
2022-11-26T01:15:26.797Z,102093.59
2022-11-26T01:15:48.469Z,102095.47
2022-11-26T01:16:20.161Z,102101.66
2022-11-26T01:16:45.102Z,102102.56
2022-11-26T01:17:11.270Z,102096.34
2022-11-26T01:17:32.907Z,102082.28
2022-11-26T01:17:55.079Z,102082.22
2022-11-26T01:18:19.818Z,102099.88
2022-11-26T01:18:41.636Z,102105.16
2022-11-26T01:19:03.473Z,102098.06
2022-11-26T01:19:25.066Z,102102.50
2022-11-26T01:19:47.617Z,102096.25
2022-11-26T01:20:25.303Z,102088.38
2022-11-26T01:20:49.235Z,102094.56
2022-11-26T01:21:11.621Z,102096.28
2022-11-26T01:21:33.420Z,102091.97
2022-11-26T01:21:55.063Z,102100.72
2022-11-26T01:22:21.011Z,102096.25
2022-11-26T01:22:43.601Z,102098.06
2022-11-26T01:23:05.254Z,102077.78
2022-11-26T01:23:26.825Z,102090.97
2022-11-26T01:23:49.150Z,102102.41
2022-11-26T01:24:11.840Z,102094.44
2022-11-26T01:24:33.475Z,102098.88
2022-11-26T01:24:55.123Z,102090.06
2022-11-26T01:25:18.145Z,102102.47
2022-11-26T01:25:41.355Z,102094.56
2022-11-26T01:26:06.429Z,102099.00
2022-11-26T01:26:33.636Z,102101.66
2022-11-26T01:26:55.321Z,102100.78
2022-11-26T01:27:20.949Z,102098.13
2022-11-26T01:27:42.632Z,102099.03
2022-11-26T01:28:04.931Z,102106.94
2022-11-26T01:28:26.515Z,102091.03
2022-11-26T01:28:48.449Z,102098.03
2022-11-26T01:29:16.214Z,102108.69
2022-11-26T01:29:37.841Z,102102.44
2022-11-26T01:29:59.420Z,102101.59
2022-11-26T01:30:23.511Z,102093.59
2022-11-26T01:30:47.194Z,102108.59
2022-11-26T01:31:15.137Z,102111.28
2022-11-26T01:31:36.870Z,102102.47
2022-11-26T01:31:58.642Z,102089.22
2022-11-26T01:32:24.150Z,102103.28
2022-11-26T01:32:50.242Z,102103.34
2022-11-26T01:33:11.922Z,102101.53
2022-11-26T01:33:34.572Z,102103.28
2022-11-26T01:33:57.209Z,102115.72
2022-11-26T01:56:38.237Z,102111.13
2022-11-26T01:57:09.136Z,102092.63
2022-11-26T01:57:32.081Z,102099.63
2022-11-26T01:57:54.090Z,102111.13
2022-11-26T01:58:20.957Z,102108.47
2022-11-26T01:58:46.651Z,102094.34
2022-11-26T01:59:12.700Z,102111.06
2022-11-26T01:59:38.042Z,102106.59
2022-11-26T02:00:02.191Z,102111.88
2022-11-26T02:00:33.952Z,102115.38
2022-11-26T02:00:56.099Z,102110.91
2022-11-26T02:01:19.037Z,102116.22
2022-11-26T02:01:41.810Z,102113.56
2022-11-26T02:02:04.579Z,102118.88
2022-11-26T02:02:28.748Z,102111.78
2022-11-26T02:02:50.409Z,102117.97
2022-11-26T02:03:12.485Z,102118.88
2022-11-26T02:03:41.778Z,102113.59
2022-11-26T02:04:13.702Z,102118.03
2022-11-26T02:04:40.414Z,102121.53
2022-11-26T02:05:07.908Z,102115.38
2022-11-26T02:05:34.381Z,102120.69
2022-11-26T02:06:02.250Z,102120.69
2022-11-26T02:06:31.419Z,102124.25
2022-11-26T02:06:55.544Z,102122.47
2022-11-26T02:07:17.181Z,102126.03
2022-11-26T02:07:39.315Z,102111.84
2022-11-26T02:08:02.148Z,102115.41
2022-11-26T02:08:27.085Z,102114.56
2022-11-26T02:08:48.951Z,102116.41
2022-11-26T02:09:13.660Z,102120.84
2022-11-26T02:09:36.555Z,102097.09
2022-11-26T02:09:58.212Z,102096.97
2022-11-26T02:10:19.985Z,102117.22
2022-11-26T02:10:41.593Z,102122.59
2022-11-26T02:11:16.140Z,102119.97
2022-11-26T02:11:38.157Z,102119.94
2022-11-26T02:12:02.509Z,102122.59
2022-11-26T02:12:24.139Z,102112.84
2022-11-26T02:12:45.969Z,102113.72
2022-11-26T02:13:07.670Z,102117.22
2022-11-26T02:13:29.374Z,102116.38
2022-11-26T02:13:52.982Z,102112.91
2022-11-26T02:14:18.941Z,102119.94
2022-11-26T02:14:43.566Z,102120.78
2022-11-26T02:15:06.090Z,102119.94
2022-11-26T02:15:32.335Z,102117.28
2022-11-26T02:16:01.168Z,102112.84
2022-11-26T02:16:36.182Z,102109.34
2022-11-26T02:17:11.564Z,102111.13
2022-11-26T02:17:38.384Z,102109.38
2022-11-26T02:18:05.834Z,102113.78
2022-11-26T02:18:33.167Z,102104.97
2022-11-26T02:19:10.375Z,102108.44
2022-11-26T02:20:09.950Z,102115.50
2022-11-26T02:20:48.952Z,102117.28
2022-11-26T02:21:17.566Z,102116.41
2022-11-26T02:21:48.815Z,102101.41
2022-11-26T02:22:23.556Z,102109.44
2022-11-26T02:23:12.826Z,102113.00
2022-11-26T02:23:59.241Z,102106.78
2022-11-26T02:24:42.938Z,102111.28
2022-11-26T02:25:17.161Z,102119.25
2022-11-26T02:26:14.620Z,102118.38
2022-11-26T02:27:01.859Z,102106.09
2022-11-26T02:28:08.595Z,102108.69
2022-11-26T02:28:48.219Z,102118.44
2022-11-26T02:29:23.705Z,102097.28
2022-11-26T02:30:05.108Z,102114.91
2022-11-26T02:30:29.998Z,102107.81
2022-11-26T02:30:58.852Z,102114.94
2022-11-26T02:31:27.004Z,102107.75
2022-11-26T02:31:55.954Z,102108.69
2022-11-26T02:32:23.533Z,102113.09
2022-11-26T02:32:55.784Z,102114.94
2022-11-26T02:33:27.074Z,102111.41
2022-11-26T02:33:53.571Z,102114.03
2022-11-26T02:34:22.642Z,102106.97
2022-11-26T02:34:51.420Z,102113.16
2022-11-26T02:35:19.684Z,102115.84
2022-11-26T02:35:44.615Z,102102.56
2022-11-26T02:36:12.121Z,102107.81
2022-11-26T02:36:38.413Z,102114.00
2022-11-26T02:37:03.911Z,102107.81
2022-11-26T02:37:30.440Z,102109.63
2022-11-26T02:37:55.852Z,102122.00
2022-11-26T02:38:22.737Z,102095.63
2022-11-26T02:38:45.530Z,102120.28
2022-11-26T02:39:14.160Z,102116.78
2022-11-26T02:39:36.227Z,102122.09
2022-11-26T02:39:58.269Z,102120.38
2022-11-26T02:40:22.710Z,102120.31
2022-11-26T02:40:44.576Z,102116.81
2022-11-26T02:41:06.144Z,102125.69
2022-11-26T02:41:33.859Z,102122.16
2022-11-26T02:41:58.850Z,102117.72
2022-11-26T02:42:24.486Z,102123.09
2022-11-26T02:42:46.141Z,102124.88
2022-11-26T02:43:07.736Z,102119.59
2022-11-26T02:43:33.515Z,102118.72
2022-11-26T02:43:56.384Z,102116.97
2022-11-26T02:44:23.031Z,102122.25
2022-11-26T02:44:46.906Z,102099.31
2022-11-26T02:45:14.455Z,102125.75
2022-11-26T02:45:40.940Z,102106.31
2022-11-26T02:46:08.525Z,102114.28
2022-11-26T02:46:31.485Z,102115.16
2022-11-26T02:46:57.122Z,102115.13
2022-11-26T02:47:21.182Z,102114.25
2022-11-26T02:47:48.233Z,102113.34
2022-11-26T02:48:14.769Z,102108.91
2022-11-26T02:48:42.030Z,102113.28
2022-11-26T02:49:04.293Z,102098.28
2022-11-26T02:49:29.258Z,102112.41
2022-11-26T02:49:53.254Z,102114.19
2022-11-26T02:50:19.678Z,102107.16
2022-11-26T02:50:46.932Z,102102.72
2022-11-26T02:51:12.825Z,102105.44
2022-11-26T02:51:35.116Z,102108.97
2022-11-26T02:52:00.020Z,102108.06
2022-11-26T02:52:22.760Z,102113.41
2022-11-26T02:52:46.335Z,102079.94
2022-11-26T02:53:10.632Z,102113.50
2022-11-26T02:53:37.008Z,102103.75
2022-11-26T02:54:00.416Z,102110.91
2022-11-26T02:54:25.715Z,102106.47
2022-11-26T02:54:49.516Z,102110.06
2022-11-26T02:55:13.368Z,102112.72
2022-11-26T02:55:38.380Z,102102.13
2022-11-26T02:56:04.469Z,102113.59
2022-11-26T02:56:27.747Z,102117.13
2022-11-26T02:56:50.549Z,102117.13
2022-11-26T02:57:15.937Z,102110.94
2022-11-26T02:57:45.103Z,102093.22
2022-11-26T02:58:07.172Z,102108.28
2022-11-26T02:58:29.746Z,102110.94
2022-11-26T02:58:53.146Z,102106.56
2022-11-26T02:59:16.287Z,102108.28
2022-11-26T02:59:38.994Z,102104.78
2022-11-26T03:00:00.804Z,102112.72
2022-11-26T03:00:24.606Z,102106.59
2022-11-26T03:00:49.433Z,102097.81
2022-11-26T03:01:15.573Z,102111.88
2022-11-26T03:01:40.415Z,102111.00
2022-11-26T03:02:08.434Z,102115.41
2022-11-26T03:02:35.810Z,102113.66
2022-11-26T03:03:02.420Z,102116.34
2022-11-26T03:03:27.547Z,102111.91
2022-11-26T03:03:52.971Z,102113.66
2022-11-26T03:04:20.409Z,102107.47
2022-11-26T03:04:46.338Z,102119.88
2022-11-26T03:05:09.440Z,102116.34
2022-11-26T03:05:35.713Z,102111.97
2022-11-26T03:06:01.928Z,102113.75
2022-11-26T03:06:25.623Z,102113.72
2022-11-26T03:06:47.923Z,102104.03
2022-11-26T03:07:12.967Z,102096.16
2022-11-26T03:07:36.567Z,102117.31
2022-11-26T03:07:59.232Z,102108.47
2022-11-26T03:08:22.539Z,102101.47
2022-11-26T03:08:45.089Z,102117.38
2022-11-26T03:09:07.453Z,102117.38
2022-11-26T03:09:39.253Z,102091.81
2022-11-26T03:10:02.833Z,102115.59
2022-11-26T03:10:26.050Z,102113.88
2022-11-26T03:10:47.679Z,102113.84
2022-11-26T03:11:09.395Z,102114.75
2022-11-26T03:11:32.050Z,102113.91
2022-11-26T03:11:53.821Z,102110.41
2022-11-26T03:12:15.532Z,102117.50
2022-11-26T03:12:37.169Z,102121.91
2022-11-26T03:13:00.180Z,102125.47
2022-11-26T03:13:21.804Z,102115.72
2022-11-26T03:13:43.441Z,102114.84
2022-11-26T03:14:05.043Z,102107.78
2022-11-26T03:14:27.678Z,102113.06
2022-11-26T03:14:49.271Z,102115.72
2022-11-26T03:15:11.570Z,102107.81
2022-11-26T03:15:34.553Z,102103.41
2022-11-26T03:15:57.220Z,102109.53
2022-11-26T03:16:19.145Z,102115.78
2022-11-26T03:16:40.847Z,102112.28
2022-11-26T03:17:02.461Z,102113.09
2022-11-26T03:17:25.096Z,102114.00
2022-11-26T03:17:47.329Z,102114.00
2022-11-26T03:18:09.008Z,102114.00
2022-11-26T03:18:31.158Z,102115.75
2022-11-26T03:18:53.802Z,102105.19
2022-11-26T03:19:15.508Z,102101.66
2022-11-26T03:19:37.125Z,102106.97
2022-11-26T03:19:58.816Z,102115.72
2022-11-26T03:20:21.399Z,102116.63
2022-11-26T03:20:43.433Z,102099.88
2022-11-26T03:21:05.413Z,102112.19
2022-11-26T03:21:27.172Z,102113.06
2022-11-26T03:21:48.759Z,102118.38
2022-11-26T03:22:12.270Z,102123.69
2022-11-26T03:22:34.174Z,102111.25
2022-11-26T03:22:57.038Z,102107.81
2022-11-26T03:23:19.107Z,102119.25
2022-11-26T03:23:41.992Z,102124.56
2022-11-26T03:24:03.959Z,102121.00
2022-11-26T03:24:25.588Z,102106.06
2022-11-26T03:24:47.369Z,102126.31
2022-11-26T03:25:10.783Z,102117.41
2022-11-26T03:25:33.136Z,102125.38
2022-11-26T03:25:54.754Z,102123.66
2022-11-26T03:26:17.658Z,102123.66
2022-11-26T03:26:40.338Z,102129.84
2022-11-26T03:27:01.974Z,102130.72
2022-11-26T03:27:23.523Z,102119.19
2022-11-26T03:27:45.360Z,102128.03
2022-11-26T03:28:08.239Z,102132.47
2022-11-26T03:28:30.175Z,102133.38
2022-11-26T03:28:52.014Z,102125.41
2022-11-26T04:11:06.965Z,102179.66
2022-11-26T04:11:28.697Z,102179.69
2022-11-26T04:11:50.362Z,102165.56
2022-11-26T04:12:11.966Z,102176.19
2022-11-26T04:12:34.526Z,102179.72
2022-11-26T04:12:56.205Z,102179.72
2022-11-26T04:13:17.793Z,102178.81
2022-11-26T04:13:39.359Z,102165.56
2022-11-26T04:14:02.218Z,102185.00
2022-11-26T04:14:23.987Z,102174.44
2022-11-26T04:14:45.697Z,102179.78
2022-11-26T04:15:08.568Z,102183.31
2022-11-26T04:15:31.222Z,102170.91
2022-11-26T04:15:52.840Z,102185.94
2022-11-26T04:16:14.587Z,102181.50
2022-11-26T04:16:36.590Z,102182.38
2022-11-26T04:16:59.323Z,102182.38
2022-11-26T04:17:20.965Z,102181.47
2022-11-26T04:17:42.557Z,102185.03
2022-11-26T04:18:04.356Z,102185.00
2022-11-26T04:18:26.971Z,102182.34
2022-11-26T04:18:48.532Z,102189.41
2022-11-26T04:19:10.245Z,102189.41
2022-11-26T04:19:32.039Z,102184.97
2022-11-26T04:19:54.676Z,102193.81
2022-11-26T04:20:16.582Z,102193.81
2022-11-26T04:20:38.225Z,102185.84
2022-11-26T04:21:00.187Z,102176.16
2022-11-26T04:21:21.787Z,102194.66
2022-11-26T04:21:45.454Z,102199.97
2022-11-26T04:22:07.063Z,102193.78
2022-11-26T04:22:28.614Z,102188.47
2022-11-26T04:22:50.244Z,102195.53
2022-11-26T04:23:12.900Z,102199.06
2022-11-26T04:23:35.266Z,102199.94
2022-11-26T04:23:56.998Z,102202.59
2022-11-26T04:24:18.863Z,102185.81
2022-11-26T04:24:41.544Z,102196.38
2022-11-26T04:25:05.132Z,102195.50
2022-11-26T04:25:26.732Z,102201.69
2022-11-26T04:25:48.400Z,102200.81
2022-11-26T04:26:12.385Z,102197.31
2022-11-26T04:26:34.126Z,102196.38
2022-11-26T04:26:55.816Z,102201.66
2022-11-26T04:27:17.401Z,102206.09
2022-11-26T04:27:39.990Z,102191.97
2022-11-26T04:28:01.750Z,102199.88
2022-11-26T04:28:23.333Z,102201.66
2022-11-26T04:28:45.188Z,102182.25
2022-11-26T04:29:07.930Z,102202.53
2022-11-26T04:29:29.710Z,102205.16
2022-11-26T04:29:51.569Z,102210.44
2022-11-26T04:30:14.872Z,102209.59
2022-11-26T04:30:36.504Z,102206.94
2022-11-26T04:30:59.270Z,102208.72
2022-11-26T04:42:26.380Z,102227.44
2022-11-26T04:42:49.327Z,102230.97
2022-11-26T04:43:10.975Z,102232.72
2022-11-26T04:43:32.655Z,102219.47
2022-11-26T04:43:55.244Z,102229.22
2022-11-26T04:44:16.836Z,102217.75
2022-11-26T04:44:38.671Z,102224.78
2022-11-26T04:45:00.447Z,102233.63
2022-11-26T04:45:23.033Z,102235.41
2022-11-26T04:45:44.732Z,102235.41
2022-11-26T04:46:06.654Z,102242.47
2022-11-26T04:46:28.350Z,102237.16
2022-11-26T04:46:50.920Z,102232.72
2022-11-26T04:47:12.467Z,102236.28
2022-11-26T04:47:35.002Z,102239.78
2022-11-26T04:47:59.069Z,102237.13
2022-11-26T04:48:21.792Z,102237.13
2022-11-26T04:48:43.392Z,102241.53
2022-11-26T04:49:05.039Z,102236.25
2022-11-26T04:49:26.637Z,102234.47
2022-11-26T04:49:48.255Z,102235.38
2022-11-26T04:50:11.906Z,102232.72
2022-11-26T04:50:33.679Z,102229.19
2022-11-26T04:50:55.262Z,102238.91
2022-11-26T04:51:16.837Z,102234.47
2022-11-26T04:51:39.400Z,102234.47
2022-11-26T04:52:01.040Z,102236.25
2022-11-26T04:52:22.760Z,102229.22
2022-11-26T04:52:44.496Z,102237.13
2022-11-26T04:53:06.909Z,102226.53
2022-11-26T04:53:29.502Z,102230.06
2022-11-26T04:53:55.475Z,102229.13
2022-11-26T04:54:17.444Z,102218.56
2022-11-26T04:54:39.373Z,102231.81
2022-11-26T04:55:02.238Z,102232.72
2022-11-26T04:55:23.850Z,102234.47
2022-11-26T04:55:45.433Z,102230.06
2022-11-26T04:56:08.434Z,102231.81
2022-11-26T04:56:30.053Z,102232.72
2022-11-26T04:56:51.656Z,102236.25
2022-11-26T04:57:14.406Z,102237.09
2022-11-26T04:57:36.049Z,102236.25
2022-11-26T04:58:00.285Z,102235.38
2022-11-26T04:58:22.294Z,102222.13
2022-11-26T04:58:44.155Z,102238.91
2022-11-26T04:59:06.766Z,102238.03
2022-11-26T04:59:28.482Z,102240.69
2022-11-26T04:59:50.133Z,102230.97
2022-11-26T05:00:12.982Z,102221.28
2022-11-26T05:00:36.015Z,102239.78
2022-11-26T05:00:57.772Z,102247.75
2022-11-26T05:01:19.489Z,102228.31
2022-11-26T05:01:41.172Z,102236.22
2022-11-26T05:02:03.769Z,102238.88
2022-11-26T05:02:25.519Z,102233.56
2022-11-26T05:02:47.195Z,102237.09
2022-11-26T05:03:08.960Z,102240.63
2022-11-26T05:03:31.583Z,102250.41
2022-11-26T05:03:53.240Z,102237.13
2022-11-26T05:04:14.841Z,102237.16
2022-11-26T05:04:37.869Z,102240.66
2022-11-26T05:05:00.000Z,102243.31
2022-11-26T05:05:21.606Z,102243.31
2022-11-26T05:05:43.316Z,102238.91
2022-11-26T05:06:06.474Z,102242.47
2022-11-26T05:06:28.065Z,102245.13
2022-11-26T05:06:49.721Z,102234.50
2022-11-26T05:07:11.451Z,102229.22
2022-11-26T05:07:33.778Z,102240.69
2022-11-26T05:07:56.443Z,102249.53
2022-11-26T05:08:18.098Z,102243.34
2022-11-26T05:08:39.806Z,102245.09
2022-11-26T05:09:01.371Z,102244.22
2022-11-26T05:09:22.970Z,102239.81
2022-11-26T05:09:46.830Z,102233.63
2022-11-26T05:10:10.506Z,102236.28
2022-11-26T05:10:32.127Z,102244.22
2022-11-26T05:10:55.305Z,102244.19
2022-11-26T05:11:17.271Z,102247.75
2022-11-26T05:11:38.881Z,102248.63
2022-11-26T05:12:00.473Z,102253.03
2022-11-26T05:12:22.992Z,102248.66
2022-11-26T05:12:44.562Z,102253.94
2022-11-26T05:13:07.490Z,102253.97
2022-11-26T05:13:29.507Z,102258.34
2022-11-26T05:13:51.569Z,102257.50
2022-11-26T05:14:14.137Z,102261.91
2022-11-26T05:14:36.034Z,102254.84
2022-11-26T05:14:57.980Z,102258.34
2022-11-26T05:15:19.635Z,102258.34
2022-11-26T05:15:42.234Z,102256.63
2022-11-26T05:16:04.231Z,102256.63
2022-11-26T05:16:25.915Z,102261.91
2022-11-26T05:16:47.666Z,102257.50
2022-11-26T05:17:09.278Z,102257.50
2022-11-26T05:17:31.961Z,102260.16
2022-11-26T05:17:53.630Z,102267.22
2022-11-26T05:18:15.231Z,102267.22
2022-11-26T05:18:36.786Z,102266.38
2022-11-26T05:18:59.474Z,102258.41
2022-11-26T05:19:21.209Z,102225.72
2022-11-26T05:19:42.915Z,102258.41
2022-11-26T05:20:06.043Z,102242.50
2022-11-26T05:20:28.646Z,102262.78
2022-11-26T05:20:50.191Z,102247.81
2022-11-26T05:21:11.799Z,102254.88
2022-11-26T05:21:33.509Z,102260.16
2022-11-26T05:21:56.106Z,102265.47
2022-11-26T05:22:17.767Z,102262.81
2022-11-26T05:22:39.382Z,102257.53
2022-11-26T05:23:00.996Z,102261.06
2022-11-26T05:33:47.756Z,102263.75
2022-11-26T05:34:09.538Z,102255.81
2022-11-26T05:34:31.408Z,102258.47
2022-11-26T05:34:55.693Z,102257.59
2022-11-26T05:35:22.686Z,102260.22
2022-11-26T05:35:44.320Z,102249.66
2022-11-26T05:36:06.423Z,102254.94
2022-11-26T05:36:28.071Z,102254.94
2022-11-26T05:36:50.910Z,102244.34
2022-11-26T05:37:12.549Z,102254.94
2022-11-26T05:37:34.256Z,102250.53
2022-11-26T05:37:56.160Z,102255.81
2022-11-26T05:38:18.831Z,102246.09
2022-11-26T05:38:40.424Z,102251.38
2022-11-26T05:39:02.132Z,102254.03
2022-11-26T05:39:23.775Z,102254.03
2022-11-26T05:39:46.365Z,102259.34
2022-11-26T05:40:09.687Z,102256.66
2022-11-26T05:40:31.291Z,102261.97
2022-11-26T05:40:52.943Z,102241.66
2022-11-26T05:41:16.634Z,102264.63
2022-11-26T05:41:38.596Z,102258.44
2022-11-26T05:42:03.590Z,102258.44
2022-11-26T05:42:27.915Z,102272.59
2022-11-26T05:42:50.587Z,102271.69
2022-11-26T05:43:13.093Z,102247.88
2022-11-26T05:43:34.703Z,102261.97
2022-11-26T05:43:56.342Z,102257.56
2022-11-26T05:44:18.186Z,102263.72
2022-11-26T05:44:41.125Z,102254.00
2022-11-26T05:45:04.033Z,102261.13
2022-11-26T05:45:25.730Z,102270.84
2022-11-26T05:45:47.425Z,102249.63
2022-11-26T05:46:10.465Z,102262.84
2022-11-26T05:46:32.446Z,102271.69
2022-11-26T05:46:54.012Z,102267.28
2022-11-26T05:47:15.756Z,102274.38
2022-11-26T05:47:37.435Z,102263.75
2022-11-26T05:48:00.031Z,102261.13
2022-11-26T05:48:21.729Z,102273.47
2022-11-26T05:48:43.725Z,102253.16
2022-11-26T05:49:06.769Z,102280.56
2022-11-26T05:49:29.360Z,102269.97
2022-11-26T05:49:51.026Z,102275.28
2022-11-26T05:50:14.861Z,102277.91
2022-11-26T05:50:37.762Z,102273.50
2022-11-26T05:50:59.639Z,102281.44
2022-11-26T05:51:21.657Z,102270.81
2022-11-26T05:51:43.287Z,102275.25
2022-11-26T05:52:05.270Z,102281.44
2022-11-26T05:52:26.877Z,102279.66
2022-11-26T05:52:49.617Z,102280.53
2022-11-26T05:53:11.238Z,102262.91
2022-11-26T05:53:33.159Z,102278.78
2022-11-26T05:53:54.760Z,102282.31
2022-11-26T05:54:17.812Z,102277.91
2022-11-26T05:54:39.695Z,102281.44
2022-11-26T05:55:01.702Z,102286.75
2022-11-26T05:55:23.291Z,102282.28
2022-11-26T05:55:45.962Z,102284.09
2022-11-26T05:56:08.402Z,102280.56
2022-11-26T05:56:30.122Z,102285.00
2022-11-26T05:56:56.917Z,102285.88
2022-11-26T05:57:22.414Z,102255.88
2022-11-26T05:57:44.195Z,102281.44
2022-11-26T05:58:05.827Z,102285.00
2022-11-26T05:58:27.547Z,102266.44
2022-11-26T05:58:49.143Z,102280.56
2022-11-26T05:59:12.077Z,102282.31
2022-11-26T05:59:33.760Z,102286.78
2022-11-26T05:59:55.403Z,102284.13
2022-11-26T06:00:17.237Z,102283.22
2022-11-26T06:00:39.785Z,102266.47
2022-11-26T06:01:01.593Z,102284.09
2022-11-26T06:01:23.270Z,102278.81
2022-11-26T06:01:44.895Z,102284.13
2022-11-26T06:02:07.580Z,102285.91
2022-11-26T06:02:29.313Z,102284.13
2022-11-26T06:02:51.128Z,102284.13
2022-11-26T06:03:17.063Z,102282.34
2022-11-26T06:03:42.573Z,102284.09
2022-11-26T06:04:06.154Z,102285.00
2022-11-26T06:04:27.847Z,102287.66
2022-11-26T06:04:49.521Z,102279.72
2022-11-26T06:05:12.652Z,102284.13
2022-11-26T06:05:34.244Z,102283.25
2022-11-26T06:05:55.867Z,102281.44
2022-11-26T06:06:17.569Z,102285.00
2022-11-26T06:06:40.192Z,102251.44
2022-11-26T06:07:01.912Z,102288.53
2022-11-26T06:07:23.683Z,102285.88
2022-11-26T06:07:45.410Z,102291.16
2022-11-26T06:08:08.104Z,102285.88